createdAt,value
2018-03-01T00:00:47.656Z,17.60
2018-03-01T00:03:15.100Z,19.00
2018-03-01T00:05:42.584Z,15.35
2018-03-01T00:08:10.030Z,16.90
2018-03-01T00:10:37.481Z,19.50
2018-03-01T00:13:04.942Z,19.00
2018-03-01T00:15:32.428Z,18.67
2018-03-01T00:17:59.929Z,16.58
2018-03-01T00:20:27.402Z,18.20
2018-03-01T00:22:54.857Z,16.20
2018-03-01T00:25:22.541Z,16.55
2018-03-01T00:27:50.015Z,17.20
2018-03-01T00:30:17.455Z,18.25
2018-03-01T00:32:44.885Z,18.23
2018-03-01T00:35:12.347Z,17.92
2018-03-01T00:37:39.856Z,17.90
2018-03-01T00:40:07.300Z,19.58
2018-03-01T00:42:34.767Z,19.08
2018-03-01T00:45:02.200Z,18.77
2018-03-01T00:47:29.636Z,16.65
2018-03-01T00:49:57.098Z,17.33
2018-03-01T00:52:24.537Z,17.83
2018-03-01T00:54:51.982Z,19.17
2018-03-01T00:57:19.433Z,18.87
2018-03-01T00:59:46.904Z,18.02
2018-03-01T01:02:14.343Z,17.75
2018-03-01T01:04:42.588Z,17.58
2018-03-01T01:07:10.216Z,18.20
2018-03-01T01:09:37.683Z,18.95
2018-03-01T01:12:05.137Z,18.75
2018-03-01T01:14:32.601Z,19.58
2018-03-01T01:17:00.110Z,20.77
2018-03-01T01:19:28.338Z,18.73
2018-03-01T01:21:55.788Z,19.23
2018-03-01T01:24:23.276Z,16.12
2018-03-01T01:26:50.728Z,19.35
2018-03-01T01:29:18.190Z,19.55
2018-03-01T01:31:45.648Z,19.27
2018-03-01T01:34:13.088Z,16.90
2018-03-01T01:36:40.547Z,17.92
2018-03-01T01:39:07.992Z,17.70
2018-03-01T01:41:35.452Z,19.50
2018-03-01T01:44:02.917Z,17.05
2018-03-01T01:46:30.359Z,19.27
2018-03-01T01:48:57.812Z,19.48
2018-03-01T01:51:25.331Z,20.92
2018-03-01T01:53:52.788Z,16.50
2018-03-01T01:56:20.996Z,17.60
2018-03-01T01:58:48.456Z,19.35
2018-03-01T02:01:15.896Z,20.17
2018-03-01T02:03:43.359Z,19.45
2018-03-01T02:06:10.835Z,18.77
2018-03-01T02:08:38.604Z,19.52
2018-03-01T02:11:06.062Z,18.17
2018-03-01T02:13:33.676Z,18.65
2018-03-01T02:16:01.945Z,18.87
2018-03-01T02:18:29.359Z,19.42
2018-03-01T02:20:56.811Z,18.27
2018-03-01T02:23:24.262Z,18.50
2018-03-01T02:25:51.737Z,20.75
2018-03-01T02:28:19.199Z,19.98
2018-03-01T02:30:46.673Z,19.83
2018-03-01T02:33:14.100Z,18.75
2018-03-01T02:35:41.563Z,18.10
2018-03-01T02:38:09.027Z,15.55
2018-03-01T02:40:36.466Z,16.50
2018-03-01T02:43:03.920Z,20.27
2018-03-01T02:45:31.370Z,20.20
2018-03-01T02:47:58.804Z,20.48
2018-03-01T02:50:26.273Z,20.58
2018-03-01T02:52:53.706Z,20.00
2018-03-01T02:55:21.193Z,19.02
2018-03-01T02:57:48.647Z,20.73
2018-03-01T03:00:16.096Z,20.75
2018-03-01T03:02:43.550Z,18.00
2018-03-01T03:05:10.984Z,20.05
2018-03-01T03:07:38.426Z,17.50
2018-03-01T03:10:05.880Z,18.45
2018-03-01T03:12:33.315Z,20.25
2018-03-01T03:15:00.781Z,20.62
2018-03-01T03:17:28.227Z,18.40
2018-03-01T03:19:55.704Z,21.00
2018-03-01T03:22:23.159Z,19.55
2018-03-01T03:24:50.624Z,18.95
2018-03-01T03:27:18.075Z,19.60
2018-03-01T03:29:45.517Z,18.80
2018-03-01T03:32:12.963Z,20.90
2018-03-01T03:34:40.418Z,21.00
2018-03-01T03:37:07.841Z,19.55
2018-03-01T03:39:36.250Z,20.83
2018-03-01T03:42:03.681Z,20.00
2018-03-01T03:44:32.230Z,19.45
2018-03-01T03:46:59.682Z,22.35
2018-03-01T03:49:27.115Z,19.00
2018-03-01T03:51:54.544Z,19.48
2018-03-01T03:54:22.022Z,19.70
2018-03-01T03:56:49.483Z,19.35
2018-03-01T03:59:16.950Z,22.40
2018-03-01T04:01:44.560Z,21.40
2018-03-01T04:04:12.031Z,19.20
2018-03-01T04:06:39.476Z,21.95
2018-03-01T04:09:06.936Z,19.45
2018-03-01T04:11:34.377Z,21.10
2018-03-01T04:14:01.817Z,18.30
2018-03-01T04:16:29.280Z,20.35
2018-03-01T04:18:56.720Z,22.08
2018-03-01T04:21:24.172Z,20.65
2018-03-01T04:23:51.692Z,19.80
2018-03-01T04:26:19.132Z,22.23
2018-03-01T04:28:46.590Z,20.10
2018-03-01T04:31:14.032Z,19.33
2018-03-01T04:33:41.489Z,20.20
2018-03-01T04:36:08.924Z,21.33
2018-03-01T04:38:36.403Z,20.27
2018-03-01T04:41:03.864Z,22.50
2018-03-01T04:43:32.110Z,20.92
2018-03-01T04:45:59.545Z,22.37
2018-03-01T04:48:27.015Z,19.83
2018-03-01T04:50:54.471Z,21.50
2018-03-01T04:53:21.914Z,23.20
2018-03-01T04:55:49.372Z,23.58
2018-03-01T04:58:16.819Z,20.98
2018-03-01T05:00:44.286Z,21.80
2018-03-01T05:03:11.738Z,22.00
2018-03-01T05:05:39.200Z,21.77
2018-03-01T05:08:06.821Z,21.98
2018-03-01T05:10:34.265Z,22.77
2018-03-01T05:13:01.777Z,22.35
2018-03-01T05:15:29.200Z,21.95
2018-03-01T05:17:56.656Z,23.45
2018-03-01T05:20:24.104Z,21.62
2018-03-01T05:22:52.321Z,21.92
2018-03-01T05:25:19.774Z,21.40
2018-03-01T05:27:47.251Z,18.37
2018-03-01T05:30:14.702Z,20.70
2018-03-01T05:32:42.150Z,21.65
2018-03-01T05:35:09.582Z,20.15
2018-03-01T05:37:37.030Z,20.88
2018-03-01T05:40:04.487Z,19.85
2018-03-01T05:42:31.951Z,20.17
2018-03-01T05:44:59.421Z,21.02
2018-03-01T05:47:26.863Z,20.20
2018-03-01T05:49:54.304Z,21.55
2018-03-01T05:52:21.747Z,20.80
2018-03-01T05:54:49.195Z,21.40
2018-03-01T05:57:16.664Z,21.87
2018-03-01T05:59:44.111Z,21.85
2018-03-01T06:02:11.564Z,21.37
2018-03-01T06:04:39.028Z,21.37
2018-03-01T06:07:06.483Z,20.77
2018-03-01T06:09:33.924Z,23.48
2018-03-01T06:12:01.380Z,22.85
2018-03-01T06:14:29.134Z,22.23
2018-03-01T06:16:56.569Z,21.65
2018-03-01T06:19:24.346Z,22.13
2018-03-01T06:21:51.773Z,21.50
2018-03-01T06:24:19.209Z,20.45
2018-03-01T06:26:46.664Z,21.85
2018-03-01T06:29:14.105Z,22.35
2018-03-01T06:31:41.580Z,21.45
2018-03-01T06:34:09.024Z,22.30
2018-03-01T06:36:36.477Z,21.33
2018-03-01T06:39:03.943Z,20.27
2018-03-01T06:41:31.413Z,22.27
2018-03-01T06:43:58.876Z,21.45
2018-03-01T06:46:26.325Z,23.73
2018-03-01T06:48:53.779Z,22.90
2018-03-01T06:51:21.225Z,22.52
2018-03-01T06:53:48.681Z,22.02
2018-03-01T06:56:16.362Z,23.02
2018-03-01T06:58:43.838Z,24.67
2018-03-01T07:01:11.348Z,23.42
2018-03-01T07:03:38.795Z,21.90
2018-03-01T07:06:06.270Z,21.52
2018-03-01T07:08:33.721Z,21.50
2018-03-01T07:11:01.175Z,23.65
2018-03-01T07:13:28.614Z,22.20
2018-03-01T07:15:56.147Z,22.33
2018-03-01T07:18:23.644Z,23.55
2018-03-01T07:20:51.111Z,22.75
2018-03-01T07:23:18.568Z,21.25
2018-03-01T07:25:46.001Z,22.30
2018-03-01T07:28:13.449Z,24.17
2018-03-01T07:30:40.885Z,22.20
2018-03-01T07:33:08.374Z,20.15
2018-03-01T07:35:35.808Z,23.02
2018-03-01T07:38:03.284Z,22.30
2018-03-01T07:40:30.730Z,22.25
2018-03-01T07:42:58.195Z,22.80
2018-03-01T07:45:26.372Z,22.27
2018-03-01T07:47:53.869Z,21.00
2018-03-01T07:50:21.341Z,23.05
2018-03-01T07:52:48.870Z,22.35
2018-03-01T07:55:16.332Z,23.12
2018-03-01T07:57:43.776Z,23.00
2018-03-01T08:00:11.234Z,23.77
2018-03-01T08:02:38.763Z,24.55
2018-03-01T08:05:06.207Z,24.73
2018-03-01T08:07:33.662Z,22.52
2018-03-01T08:10:01.878Z,22.42
2018-03-01T08:12:29.343Z,23.15
2018-03-01T08:14:58.213Z,23.17
2018-03-01T08:17:25.644Z,22.10
2018-03-01T08:19:53.102Z,24.45
2018-03-01T08:22:20.534Z,24.15
2018-03-01T08:24:47.992Z,22.50
2018-03-01T08:27:15.683Z,22.65
2018-03-01T08:29:43.123Z,25.40
2018-03-01T08:32:11.336Z,22.37
2018-03-01T08:34:38.781Z,23.30
2018-03-01T08:37:06.244Z,22.70
2018-03-01T08:39:33.690Z,26.00
2018-03-01T08:42:01.931Z,23.10
2018-03-01T08:44:30.154Z,21.92
2018-03-01T08:46:57.614Z,21.90
2018-03-01T08:49:25.104Z,23.15
2018-03-01T08:51:52.573Z,22.87
2018-03-01T08:54:20.056Z,24.70
2018-03-01T08:56:47.473Z,23.70
2018-03-01T08:59:14.932Z,23.65
2018-03-01T09:01:42.372Z,27.20
2018-03-01T09:04:09.853Z,24.20
2018-03-01T09:06:37.299Z,25.37
2018-03-01T09:09:05.296Z,25.40
2018-03-01T09:11:32.737Z,24.98
2018-03-01T09:14:00.193Z,29.00
2018-03-01T09:16:27.648Z,25.25
2018-03-01T09:18:55.097Z,25.23
2018-03-01T09:21:22.808Z,24.60
2018-03-01T09:23:50.268Z,27.40
2018-03-01T09:26:17.729Z,24.02
2018-03-01T09:28:45.183Z,27.77
2018-03-01T09:31:12.741Z,24.95
2018-03-01T09:33:40.180Z,26.67
2018-03-01T09:36:07.645Z,24.98
2018-03-01T09:38:35.080Z,26.50
2018-03-01T09:41:02.517Z,22.55
2018-03-01T09:43:30.025Z,26.73
2018-03-01T09:45:58.243Z,24.12
2018-03-01T09:48:25.725Z,25.95
2018-03-01T09:50:58.953Z,25.37
2018-03-01T09:53:26.407Z,27.00
2018-03-01T09:55:53.844Z,26.33
2018-03-01T09:58:21.303Z,27.77
2018-03-01T10:00:48.747Z,25.35
2018-03-01T10:03:16.216Z,26.00
2018-03-01T10:05:43.660Z,26.48
2018-03-01T10:08:11.120Z,25.12
2018-03-01T10:10:39.352Z,25.88
2018-03-01T10:13:06.813Z,24.67
2018-03-01T10:15:34.447Z,26.52
2018-03-01T10:18:01.945Z,26.08
2018-03-01T10:20:29.358Z,26.33
2018-03-01T10:22:57.010Z,27.90
2018-03-01T10:25:24.460Z,26.25
2018-03-01T10:27:52.681Z,26.95
2018-03-01T10:30:20.125Z,25.88
2018-03-01T10:32:47.567Z,24.85
2018-03-01T10:35:15.014Z,24.00
2018-03-01T10:37:42.468Z,23.87
2018-03-01T10:40:09.913Z,26.27
2018-03-01T10:42:38.143Z,26.35
2018-03-01T10:45:05.659Z,25.77
2018-03-01T10:47:33.110Z,25.00
2018-03-01T10:50:01.317Z,23.08
2018-03-01T10:52:28.778Z,25.83
2018-03-01T10:54:56.231Z,25.15
2018-03-01T10:57:23.677Z,26.52
2018-03-01T10:59:51.134Z,26.00
2018-03-01T11:02:18.582Z,26.73
2018-03-01T11:04:46.037Z,25.37
2018-03-01T11:07:13.502Z,25.65
2018-03-01T11:09:40.932Z,27.05
2018-03-01T11:12:09.146Z,25.05
2018-03-01T11:14:36.620Z,25.73
2018-03-01T11:17:04.060Z,27.33
2018-03-01T11:19:31.699Z,27.02
2018-03-01T11:21:59.152Z,25.48
2018-03-01T11:24:26.615Z,26.33
2018-03-01T11:26:54.071Z,26.45
2018-03-01T11:29:21.531Z,26.15
2018-03-01T11:31:48.983Z,25.67
2018-03-01T11:34:16.432Z,26.17
2018-03-01T11:36:43.878Z,27.27
2018-03-01T11:39:11.325Z,28.58
2018-03-01T11:41:38.813Z,45.00
2018-03-01T11:44:06.296Z,105.75
2018-03-01T11:46:33.760Z,41.08
2018-03-01T11:49:01.204Z,25.92
2018-03-01T11:51:28.672Z,26.98
2018-03-01T11:53:56.124Z,25.45
2018-03-01T11:56:23.594Z,25.52
2018-03-01T11:58:51.034Z,26.98
2018-03-01T12:01:18.699Z,26.85
2018-03-01T12:03:46.257Z,27.35
2018-03-01T12:06:13.695Z,26.00
2018-03-01T12:08:41.140Z,27.00
2018-03-01T12:11:08.595Z,24.37
2018-03-01T12:13:36.068Z,28.53
2018-03-01T12:16:04.548Z,28.03
2018-03-01T12:18:32.017Z,27.47
2018-03-01T12:20:59.489Z,29.73
2018-03-01T12:23:27.239Z,28.17
2018-03-01T12:25:54.890Z,28.80
2018-03-01T12:28:22.308Z,29.43
2018-03-01T12:30:49.781Z,28.20
2018-03-01T12:33:17.260Z,27.57
2018-03-01T12:35:44.949Z,28.23
2018-03-01T12:38:12.397Z,28.53
2018-03-01T12:40:40.150Z,26.03
2018-03-01T12:43:08.598Z,27.77
2018-03-01T12:45:36.848Z,30.00
2018-03-01T12:48:04.470Z,28.40
2018-03-01T12:50:31.909Z,25.47
2018-03-01T12:52:59.364Z,26.80
2018-03-01T12:55:26.847Z,26.50
2018-03-01T12:57:54.312Z,26.03
2018-03-01T13:00:21.774Z,29.43
2018-03-01T13:02:49.524Z,28.10
2018-03-01T13:05:17.744Z,27.30
2018-03-01T13:07:45.201Z,27.47
2018-03-01T13:10:12.818Z,27.90
2018-03-01T13:12:40.482Z,27.60
2018-03-01T13:15:07.953Z,28.13
2018-03-01T13:17:36.152Z,27.70
2018-03-01T13:20:03.618Z,28.07
2018-03-01T13:22:31.052Z,30.33
2018-03-01T13:24:58.500Z,30.50
2018-03-01T13:27:26.010Z,30.63
2018-03-01T13:29:53.417Z,29.60
2018-03-01T13:32:27.674Z,29.07
2018-03-01T13:35:01.584Z,28.90
2018-03-01T13:37:29.804Z,27.70
2018-03-01T13:39:57.258Z,29.10
2018-03-01T13:42:28.504Z,29.27
2018-03-01T13:44:55.919Z,26.43
2018-03-01T13:47:25.354Z,29.00
2018-03-01T13:49:52.784Z,25.03
2018-03-01T13:52:20.273Z,25.50
2018-03-01T13:54:47.729Z,26.87
2018-03-01T13:57:15.206Z,27.10
2018-03-01T13:59:42.644Z,27.47
2018-03-01T14:02:10.120Z,27.90
2018-03-01T14:04:37.593Z,27.90
2018-03-01T14:07:09.488Z,27.90
2018-03-01T14:09:36.952Z,29.10
2018-03-01T14:12:04.403Z,27.40
2018-03-01T14:14:41.752Z,31.23
2018-03-01T14:17:09.236Z,29.40
2018-03-01T14:19:42.474Z,28.23
2018-03-01T14:22:13.507Z,31.40
2018-03-01T14:24:40.980Z,30.90
2018-03-01T14:27:14.100Z,32.43
2018-03-01T14:29:41.560Z,33.87
2018-03-01T14:32:09.017Z,32.33
2018-03-01T14:34:36.876Z,33.97
2018-03-01T14:37:04.327Z,29.87
2018-03-01T14:39:31.804Z,28.73
2018-03-01T14:41:59.264Z,28.73
2018-03-01T14:44:26.777Z,27.30
2018-03-01T14:46:54.220Z,30.57
2018-03-01T14:49:21.745Z,26.77
2018-03-01T14:51:49.994Z,28.43
2018-03-01T14:54:17.442Z,29.73
2018-03-01T14:56:44.976Z,26.90
2018-03-01T14:59:12.450Z,27.23
2018-03-01T15:01:39.923Z,26.80
2018-03-01T15:04:07.409Z,26.40
2018-03-01T15:06:34.967Z,26.75
2018-03-01T15:09:03.234Z,26.33
2018-03-01T15:11:31.285Z,28.40
2018-03-01T15:13:58.740Z,24.73
2018-03-01T15:16:26.205Z,26.95
2018-03-01T15:18:53.662Z,26.95
2018-03-01T15:21:21.132Z,28.12
2018-03-01T15:23:48.566Z,27.40
2018-03-01T15:26:16.042Z,27.48
2018-03-01T15:28:43.486Z,26.58
2018-03-01T15:31:10.951Z,25.73
2018-03-01T15:33:38.408Z,25.62
2018-03-01T15:36:05.848Z,27.30
2018-03-01T15:38:33.313Z,28.98
2018-03-01T15:41:00.752Z,26.30
2018-03-01T15:43:28.218Z,26.55
2018-03-01T15:45:56.549Z,29.27
2018-03-01T15:48:23.992Z,26.95
2018-03-01T15:50:51.464Z,27.37
2018-03-01T15:53:18.897Z,27.15
2018-03-01T15:55:47.130Z,27.17
2018-03-01T15:58:14.578Z,27.27
2018-03-01T16:00:42.240Z,33.30
2018-03-01T16:03:09.699Z,31.55
2018-03-01T16:05:37.219Z,27.00
2018-03-01T16:08:04.635Z,27.50
2018-03-01T16:10:32.085Z,27.65
2018-03-01T16:12:59.589Z,24.58
2018-03-01T16:15:27.029Z,25.30
2018-03-01T16:17:55.267Z,26.30
2018-03-01T16:20:22.734Z,26.83
2018-03-01T16:22:50.272Z,28.15
2018-03-01T16:25:17.739Z,26.27
2018-03-01T16:27:45.226Z,27.20
2018-03-01T16:30:12.757Z,26.90
2018-03-01T16:32:40.212Z,26.20
2018-03-01T16:35:07.732Z,25.83
2018-03-01T16:37:35.204Z,27.58
2018-03-01T16:40:02.660Z,25.20
2018-03-01T16:42:30.136Z,25.17
2018-03-01T16:44:57.629Z,24.25
2018-03-01T16:47:25.087Z,26.25
2018-03-01T16:49:52.565Z,28.05
2018-03-01T16:52:20.044Z,27.40
2018-03-01T16:54:47.529Z,27.25
2018-03-01T16:57:15.002Z,26.00
2018-03-01T16:59:42.509Z,26.05
2018-03-01T17:02:09.922Z,27.40
2018-03-01T17:04:37.373Z,26.92
2018-03-01T17:07:04.831Z,26.85
2018-03-01T17:09:32.298Z,28.75
2018-03-01T17:11:59.742Z,29.35
2018-03-01T17:14:27.210Z,28.55
2018-03-01T17:16:54.674Z,28.33
2018-03-01T17:19:22.166Z,27.37
2018-03-01T17:21:49.666Z,27.30
2018-03-01T17:24:17.130Z,28.00
2018-03-01T17:26:52.345Z,27.35
2018-03-01T17:29:19.908Z,28.70
2018-03-01T17:31:47.338Z,28.15
2018-03-01T17:34:14.800Z,27.13
2018-03-01T17:36:42.254Z,27.45
2018-03-01T17:39:09.697Z,25.90
2018-03-01T17:41:37.166Z,25.60
2018-03-01T17:44:04.626Z,26.37
2018-03-01T17:46:32.063Z,26.33
2018-03-01T17:48:59.645Z,28.45
2018-03-01T17:51:27.161Z,29.15
2018-03-01T17:53:54.637Z,28.95
2018-03-01T17:56:22.112Z,28.27
2018-03-01T17:58:49.588Z,31.00
2018-03-01T18:01:17.026Z,29.80
2018-03-01T18:03:44.497Z,29.15
2018-03-01T18:06:11.937Z,30.95
2018-03-01T18:08:40.166Z,25.35
2018-03-01T18:11:07.646Z,28.40
2018-03-01T18:13:35.101Z,27.92
2018-03-01T18:16:02.577Z,28.85
2018-03-01T18:18:30.037Z,29.52
2018-03-01T18:20:57.487Z,29.75
2018-03-01T18:23:24.943Z,28.00
2018-03-01T18:25:53.170Z,27.27
2018-03-01T18:28:20.619Z,28.17
2018-03-01T18:30:48.117Z,28.80
2018-03-01T18:33:15.606Z,28.08
2018-03-01T18:35:43.072Z,27.55
2018-03-01T18:38:10.528Z,27.92
2018-03-01T18:40:38.211Z,27.37
2018-03-01T18:43:05.644Z,27.08
2018-03-01T18:45:33.096Z,26.62
2018-03-01T18:48:00.556Z,29.45
2018-03-01T18:50:28.772Z,27.55
2018-03-01T18:53:12.455Z,28.75
2018-03-01T18:55:39.912Z,27.60
2018-03-01T18:58:07.384Z,26.12
2018-03-01T19:00:34.824Z,29.15
2018-03-01T19:03:03.084Z,27.23
2018-03-01T19:05:30.532Z,28.80
2018-03-01T19:07:57.998Z,28.25
2018-03-01T19:10:25.429Z,26.60
2018-03-01T19:12:53.584Z,27.92
2018-03-01T19:15:21.032Z,27.77
2018-03-01T19:17:48.622Z,29.33
2018-03-01T19:20:16.077Z,29.65
2018-03-01T19:22:43.528Z,27.85
2018-03-01T19:25:11.777Z,25.23
2018-03-01T19:27:39.200Z,27.42
2018-03-01T19:30:07.418Z,28.60
2018-03-01T19:32:34.856Z,28.90
2018-03-01T19:35:02.317Z,27.30
2018-03-01T19:37:29.817Z,28.15
2018-03-01T19:39:57.276Z,28.67
2018-03-01T19:42:24.728Z,30.27
2018-03-01T19:44:52.713Z,28.12
2018-03-01T19:47:20.203Z,28.27
2018-03-01T19:49:47.714Z,26.87
2018-03-01T19:52:15.162Z,28.87
2018-03-01T19:54:42.608Z,29.15
2018-03-01T19:57:10.063Z,30.70
2018-03-01T19:59:37.528Z,29.58
2018-03-01T20:02:04.978Z,29.05
2018-03-01T20:04:32.435Z,31.45
2018-03-01T20:06:59.884Z,30.02
2018-03-01T20:09:27.328Z,31.52
2018-03-01T20:11:54.793Z,28.17
2018-03-01T20:14:22.220Z,29.00
2018-03-01T20:16:50.441Z,28.58
2018-03-01T20:19:17.945Z,29.33
2018-03-01T20:21:45.397Z,30.80
2018-03-01T20:24:13.013Z,29.95
2018-03-01T20:26:40.448Z,31.60
2018-03-01T20:29:07.891Z,34.42
2018-03-01T20:31:35.337Z,32.85
2018-03-01T20:34:02.769Z,31.48
2018-03-01T20:36:30.224Z,31.67
2018-03-01T20:38:57.694Z,30.77
2018-03-01T20:41:25.155Z,33.55
2018-03-01T20:43:52.584Z,32.17
2018-03-01T20:46:20.101Z,31.17
2018-03-01T20:48:47.582Z,33.42
2018-03-01T20:51:14.995Z,34.35
2018-03-01T20:53:42.448Z,32.25
2018-03-01T20:56:09.918Z,33.83
2018-03-01T20:58:37.375Z,31.90
2018-03-01T21:01:04.832Z,34.13
2018-03-01T21:03:33.158Z,35.08
2018-03-01T21:06:00.612Z,34.08
2018-03-01T21:08:28.140Z,30.95
2018-03-01T21:10:55.602Z,32.72
2018-03-01T21:13:23.085Z,30.35
2018-03-01T21:15:50.516Z,30.05
2018-03-01T21:18:18.004Z,33.05
2018-03-01T21:20:45.436Z,30.95
2018-03-01T21:23:12.921Z,33.22
2018-03-01T21:25:40.388Z,31.50
2018-03-01T21:28:09.337Z,31.27
2018-03-01T21:30:36.773Z,33.25
2018-03-01T21:33:04.267Z,34.00
2018-03-01T21:35:31.708Z,32.65
2018-03-01T21:37:59.148Z,32.83
2018-03-01T21:40:26.634Z,34.30
2018-03-01T21:42:54.069Z,31.87
2018-03-01T21:45:21.553Z,30.95
2018-03-01T21:47:48.996Z,32.17
2018-03-01T21:50:16.428Z,32.38
2018-03-01T21:52:43.901Z,32.70
2018-03-01T21:55:11.335Z,34.95
2018-03-01T21:57:38.814Z,29.42
2018-03-01T22:00:06.297Z,31.23
2018-03-01T22:02:33.751Z,30.83
2018-03-01T22:05:01.210Z,34.05
2018-03-01T22:07:28.644Z,31.90
2018-03-01T22:09:56.104Z,31.48
2018-03-01T22:12:23.590Z,33.25
2018-03-01T22:14:51.020Z,31.62
2018-03-01T22:17:18.515Z,30.85
2018-03-01T22:19:45.952Z,32.40
2018-03-01T22:22:13.404Z,30.62
2018-03-01T22:24:40.840Z,33.17
2018-03-01T22:27:08.305Z,32.22
2018-03-01T22:29:35.764Z,35.45
2018-03-01T22:32:03.212Z,31.12
2018-03-01T22:34:30.668Z,32.03
2018-03-01T22:36:58.135Z,33.67
2018-03-01T22:39:25.577Z,34.38
2018-03-01T22:41:53.024Z,30.85
2018-03-01T22:44:20.480Z,34.35
2018-03-01T22:46:48.680Z,32.28
2018-03-01T22:49:16.135Z,32.45
2018-03-01T22:51:43.581Z,33.63
2018-03-01T22:54:11.477Z,34.05
2018-03-01T22:56:39.639Z,34.22
2018-03-01T22:59:07.071Z,32.22
2018-03-01T23:01:34.530Z,33.97
2018-03-01T23:04:01.969Z,34.88
2018-03-01T23:06:30.201Z,32.08
2018-03-01T23:08:57.639Z,33.15
2018-03-01T23:11:25.095Z,29.50
2018-03-01T23:13:52.624Z,31.77
2018-03-01T23:16:20.080Z,30.12
2018-03-01T23:18:47.505Z,31.30
2018-03-01T23:21:15.119Z,32.80
2018-03-01T23:23:42.568Z,32.95
2018-03-01T23:26:10.021Z,32.33
2018-03-01T23:28:37.476Z,31.90
2018-03-01T23:31:06.520Z,32.78
2018-03-01T23:33:34.584Z,31.02
2018-03-01T23:36:02.036Z,30.98
2018-03-01T23:38:29.520Z,33.13
2018-03-01T23:40:56.962Z,34.33
2018-03-01T23:43:24.412Z,31.40
2018-03-01T23:45:51.849Z,31.67
2018-03-01T23:48:19.308Z,31.48
2018-03-01T23:50:46.764Z,31.95
2018-03-01T23:53:14.220Z,37.17
2018-03-01T23:55:41.669Z,31.10
2018-03-01T23:58:09.110Z,33.70
